BTI1T EYKA-EYKA
Flight info
| Callsign | BTI1T |
|---|---|
| Flight time | 1h 4m |
| Altitude | 4000 |
| Route | / |
| Aircraft | DH8D/M-SDE2E3FGRY/H |
Departure
| Time | 2026-04-25 16:51 |
|---|---|
| Airport | Kaunas International Airport (EYKA) |
Arrival
| Time | 2026-04-25 17:55 |
|---|---|
| Airport | Kaunas International Airport (EYKA) |
| Time | Latitude | Longitude | Altitude | Speed | Heading |
|---|---|---|---|---|---|
| 2026-04-25 16:28 | 54.96558 | 24.07571 | 233 ft | 0 kts | 105° |
| 2026-04-25 16:45 | 54.96558 | 24.07574 | 233 ft | 0 kts | 105° |
| 2026-04-25 16:46 | 54.96550 | 24.07617 | 233 ft | 5 kts | 109° |
| 2026-04-25 16:46 | 54.96546 | 24.07632 | 233 ft | 0 kts | 114° |
| 2026-04-25 16:46 | 54.96529 | 24.07665 | 233 ft | 9 kts | 129° |
| 2026-04-25 16:47 | 54.96530 | 24.07925 | 234 ft | 21 kts | 83° |
| 2026-04-25 16:47 | 54.96572 | 24.08241 | 236 ft | 28 kts | 82° |
| 2026-04-25 16:47 | 54.96589 | 24.08600 | 238 ft | 31 kts | 85° |
| 2026-04-25 16:47 | 54.96612 | 24.09090 | 241 ft | 29 kts | 85° |
| 2026-04-25 16:48 | 54.96622 | 24.09313 | 243 ft | 27 kts | 85° |
| 2026-04-25 16:48 | 54.96632 | 24.09558 | 243 ft | 13 kts | 91° |
| 2026-04-25 16:48 | 54.96569 | 24.09647 | 245 ft | 5 kts | 177° |
| 2026-04-25 16:48 | 54.96554 | 24.09649 | 245 ft | 0 kts | 175° |
| 2026-04-25 16:49 | 54.96534 | 24.09652 | 245 ft | 8 kts | 175° |
| 2026-04-25 16:50 | 54.96472 | 24.09660 | 246 ft | 8 kts | 187° |
| 2026-04-25 16:50 | 54.96448 | 24.09609 | 247 ft | 0 kts | 262° |
| 2026-04-25 16:50 | 54.96446 | 24.09572 | 247 ft | 0 kts | 265° |
| 2026-04-25 16:51 | 54.96446 | 24.09567 | 247 ft | 5 kts | 265° |
| 2026-04-25 16:51 | 54.96413 | 24.08931 | 241 ft | 105 kts | 264° |
| 2026-04-25 16:51 | 54.96353 | 24.07314 | 523 ft | 154 kts | 268° |
| 2026-04-25 16:51 | 54.96293 | 24.06016 | 896 ft | 167 kts | 265° |
| 2026-04-25 16:52 | 54.96138 | 24.03182 | 1737 ft | 185 kts | 266° |
| 2026-04-25 16:52 | 54.96014 | 24.01037 | 2681 ft | 182 kts | 266° |
| 2026-04-25 16:52 | 54.95866 | 23.98864 | 3457 ft | 189 kts | 266° |
| 2026-04-25 16:52 | 54.95594 | 23.96475 | 3795 ft | 212 kts | 255° |
| 2026-04-25 16:53 | 54.93265 | 23.93542 | 3934 ft | 224 kts | 193° |
| 2026-04-25 16:53 | 54.91779 | 23.94073 | 3938 ft | 224 kts | 159° |
| 2026-04-25 16:53 | 54.90610 | 23.95970 | 3959 ft | 239 kts | 125° |
| 2026-04-25 16:54 | 54.90098 | 23.98738 | 3963 ft | 244 kts | 93° |
| 2026-04-25 16:54 | 54.90138 | 24.01682 | 3973 ft | 246 kts | 85° |
| 2026-04-25 16:54 | 54.90199 | 24.04649 | 3964 ft | 244 kts | 86° |
| 2026-04-25 16:54 | 54.90262 | 24.07563 | 3962 ft | 241 kts | 85° |
| 2026-04-25 16:55 | 54.90324 | 24.10454 | 3963 ft | 238 kts | 85° |
| 2026-04-25 16:55 | 54.90385 | 24.13301 | 3962 ft | 236 kts | 85° |
| 2026-04-25 16:55 | 54.90428 | 24.15526 | 3960 ft | 235 kts | 85° |
| 2026-04-25 16:55 | 54.90484 | 24.19310 | 3961 ft | 232 kts | 86° |
| 2026-04-25 16:56 | 54.90507 | 24.21133 | 3946 ft | 221 kts | 86° |
| 2026-04-25 16:56 | 54.90539 | 24.23790 | 3957 ft | 221 kts | 86° |
| 2026-04-25 16:56 | 54.90569 | 24.26455 | 3960 ft | 221 kts | 86° |
| 2026-04-25 16:56 | 54.90602 | 24.29091 | 3953 ft | 212 kts | 86° |
| 2026-04-25 16:57 | 54.90631 | 24.31614 | 3961 ft | 209 kts | 86° |
| 2026-04-25 16:57 | 54.90653 | 24.33292 | 3959 ft | 209 kts | 86° |
| 2026-04-25 16:57 | 54.90700 | 24.36619 | 3944 ft | 202 kts | 85° |
| 2026-04-25 16:57 | 54.91040 | 24.39664 | 3931 ft | 183 kts | 44° |
| 2026-04-25 16:58 | 54.91666 | 24.40474 | 3933 ft | 156 kts | 4° |
| 2026-04-25 16:58 | 54.92629 | 24.40196 | 3844 ft | 141 kts | 322° |
| 2026-04-25 16:58 | 54.93399 | 24.39113 | 3697 ft | 144 kts | 307° |
| 2026-04-25 16:58 | 54.93981 | 24.37724 | 3477 ft | 145 kts | 299° |
| 2026-04-25 16:59 | 54.94522 | 24.36138 | 3264 ft | 154 kts | 296° |
| 2026-04-25 16:59 | 54.95045 | 24.34518 | 3052 ft | 155 kts | 296° |
| 2026-04-25 16:59 | 54.95565 | 24.32902 | 2835 ft | 152 kts | 295° |
| 2026-04-25 16:59 | 54.96215 | 24.30863 | 2567 ft | 137 kts | 295° |
| 2026-04-25 17:00 | 54.96513 | 24.29930 | 2442 ft | 127 kts | 295° |
| 2026-04-25 17:00 | 54.96903 | 24.28648 | 2231 ft | 112 kts | 284° |
| 2026-04-25 17:00 | 54.96994 | 24.27400 | 1938 ft | 98 kts | 275° |
| 2026-04-25 17:00 | 54.97086 | 24.26261 | 1685 ft | 99 kts | 277° |
| 2026-04-25 17:01 | 54.97172 | 24.24970 | 1613 ft | 115 kts | 274° |
| 2026-04-25 17:01 | 54.97160 | 24.23469 | 1487 ft | 134 kts | 267° |
| 2026-04-25 17:01 | 54.97040 | 24.21906 | 1439 ft | 133 kts | 262° |
| 2026-04-25 17:01 | 54.96930 | 24.19846 | 1383 ft | 117 kts | 270° |
| 2026-04-25 17:02 | 54.96912 | 24.18889 | 1302 ft | 120 kts | 268° |
| 2026-04-25 17:02 | 54.96832 | 24.17460 | 1108 ft | 116 kts | 265° |
| 2026-04-25 17:02 | 54.96766 | 24.16144 | 913 ft | 103 kts | 267° |
| 2026-04-25 17:02 | 54.96727 | 24.15345 | 820 ft | 94 kts | 268° |
| 2026-04-25 17:03 | 54.96653 | 24.13807 | 694 ft | 96 kts | 264° |
| 2026-04-25 17:03 | 54.96590 | 24.12615 | 576 ft | 102 kts | 267° |
| 2026-04-25 17:03 | 54.96530 | 24.11383 | 387 ft | 101 kts | 267° |
| 2026-04-25 17:03 | 54.96475 | 24.10225 | 251 ft | 91 kts | 266° |
| 2026-04-25 17:04 | 54.96429 | 24.09107 | 338 ft | 95 kts | 267° |
| 2026-04-25 17:04 | 54.96365 | 24.07884 | 450 ft | 110 kts | 266° |
| 2026-04-25 17:04 | 54.96314 | 24.06607 | 837 ft | 101 kts | 267° |
| 2026-04-25 17:04 | 54.96243 | 24.05299 | 1377 ft | 120 kts | 269° |
| 2026-04-25 17:05 | 54.96199 | 24.03877 | 2155 ft | 126 kts | 269° |
| 2026-04-25 17:05 | 54.96027 | 24.00810 | 3470 ft | 158 kts | 266° |
| 2026-04-25 17:05 | 54.95853 | 23.98782 | 4028 ft | 179 kts | 263° |
| 2026-04-25 17:06 | 54.95246 | 23.96782 | 4612 ft | 200 kts | 233° |
| 2026-04-25 17:06 | 54.94012 | 23.95618 | 4821 ft | 215 kts | 200° |
| 2026-04-25 17:06 | 54.92455 | 23.95773 | 4906 ft | 235 kts | 169° |
| 2026-04-25 17:06 | 54.91042 | 23.97325 | 4937 ft | 250 kts | 137° |
| 2026-04-25 17:07 | 54.90182 | 23.99952 | 4951 ft | 254 kts | 105° |
| 2026-04-25 17:07 | 54.90042 | 24.02879 | 4961 ft | 243 kts | 85° |
| 2026-04-25 17:07 | 54.90092 | 24.05795 | 4957 ft | 238 kts | 85° |
| 2026-04-25 17:07 | 54.90136 | 24.08630 | 4956 ft | 231 kts | 85° |
| 2026-04-25 17:08 | 54.90178 | 24.11384 | 4956 ft | 224 kts | 85° |
| 2026-04-25 17:08 | 54.90230 | 24.14906 | 4955 ft | 215 kts | 85° |
| 2026-04-25 17:08 | 54.90253 | 24.16585 | 4954 ft | 211 kts | 85° |
| 2026-04-25 17:08 | 54.90289 | 24.19186 | 4966 ft | 218 kts | 85° |
| 2026-04-25 17:09 | 54.90331 | 24.21868 | 4860 ft | 223 kts | 85° |
| 2026-04-25 17:09 | 54.90375 | 24.24530 | 4615 ft | 217 kts | 85° |
| 2026-04-25 17:09 | 54.90417 | 24.27089 | 4349 ft | 209 kts | 85° |
| 2026-04-25 17:09 | 54.90466 | 24.30467 | 4026 ft | 213 kts | 85° |
| 2026-04-25 17:10 | 54.90492 | 24.32217 | 3864 ft | 217 kts | 85° |
| 2026-04-25 17:10 | 54.90561 | 24.34839 | 3559 ft | 217 kts | 77° |
| 2026-04-25 17:10 | 54.91217 | 24.36988 | 3206 ft | 194 kts | 30° |
| 2026-04-25 17:10 | 54.92362 | 24.37555 | 2884 ft | 158 kts | 338° |
| 2026-04-25 17:11 | 54.93263 | 24.36716 | 2750 ft | 149 kts | 317° |
| 2026-04-25 17:11 | 54.94015 | 24.35515 | 2680 ft | 146 kts | 304° |
| 2026-04-25 17:11 | 54.94616 | 24.34101 | 2568 ft | 146 kts | 301° |
| 2026-04-25 17:11 | 54.95198 | 24.32663 | 2440 ft | 144 kts | 301° |
| 2026-04-25 17:12 | 54.95775 | 24.31233 | 2304 ft | 142 kts | 301° |
| 2026-04-25 17:12 | 54.96335 | 24.29847 | 2177 ft | 140 kts | 301° |
| 2026-04-25 17:12 | 54.96895 | 24.28452 | 2039 ft | 138 kts | 299° |
| 2026-04-25 17:12 | 54.97343 | 24.27025 | 1895 ft | 128 kts | 289° |
| 2026-04-25 17:13 | 54.97355 | 24.25681 | 1722 ft | 106 kts | 257° |
| 2026-04-25 17:13 | 54.97224 | 24.24882 | 1674 ft | 103 kts | 262° |
| 2026-04-25 17:13 | 54.97131 | 24.23130 | 1688 ft | 115 kts | 268° |
| 2026-04-25 17:13 | 54.97059 | 24.21687 | 1548 ft | 121 kts | 265° |
| 2026-04-25 17:14 | 54.96972 | 24.20295 | 1364 ft | 110 kts | 266° |
| 2026-04-25 17:14 | 54.96909 | 24.19020 | 1212 ft | 103 kts | 267° |
| 2026-04-25 17:14 | 54.96854 | 24.17713 | 1127 ft | 115 kts | 268° |
| 2026-04-25 17:14 | 54.96773 | 24.16306 | 989 ft | 115 kts | 266° |
| 2026-04-25 17:15 | 54.96693 | 24.14950 | 815 ft | 112 kts | 267° |
| 2026-04-25 17:15 | 54.96639 | 24.13604 | 641 ft | 109 kts | 266° |
| 2026-04-25 17:15 | 54.96578 | 24.12303 | 478 ft | 109 kts | 266° |
| 2026-04-25 17:15 | 54.96512 | 24.10991 | 326 ft | 106 kts | 267° |
| 2026-04-25 17:16 | 54.96456 | 24.09776 | 258 ft | 96 kts | 269° |
| 2026-04-25 17:16 | 54.96397 | 24.08603 | 381 ft | 101 kts | 267° |
| 2026-04-25 17:16 | 54.96325 | 24.07146 | 649 ft | 143 kts | 266° |
| 2026-04-25 17:16 | 54.96226 | 24.05373 | 1516 ft | 152 kts | 265° |
| 2026-04-25 17:17 | 54.96129 | 24.03443 | 2106 ft | 172 kts | 266° |
| 2026-04-25 17:17 | 54.96001 | 24.01335 | 2803 ft | 184 kts | 266° |
| 2026-04-25 17:17 | 54.95835 | 23.99138 | 3650 ft | 187 kts | 266° |
| 2026-04-25 17:17 | 54.95616 | 23.96926 | 4517 ft | 189 kts | 259° |
| 2026-04-25 17:18 | 54.94906 | 23.94920 | 4824 ft | 212 kts | 230° |
| 2026-04-25 17:18 | 54.93553 | 23.93784 | 4911 ft | 224 kts | 198° |
| 2026-04-25 17:18 | 54.91974 | 23.93995 | 4953 ft | 239 kts | 169° |
| 2026-04-25 17:18 | 54.90565 | 23.95502 | 4948 ft | 243 kts | 137° |
| 2026-04-25 17:19 | 54.89748 | 23.98050 | 4952 ft | 241 kts | 103° |
| 2026-04-25 17:19 | 54.89645 | 24.00905 | 4963 ft | 234 kts | 85° |
| 2026-04-25 17:19 | 54.89684 | 24.03738 | 4958 ft | 233 kts | 85° |
| 2026-04-25 17:19 | 54.89720 | 24.06510 | 4952 ft | 231 kts | 85° |
| 2026-04-25 17:20 | 54.89762 | 24.09316 | 4954 ft | 237 kts | 85° |
| 2026-04-25 17:20 | 54.89808 | 24.12209 | 4961 ft | 242 kts | 85° |
| 2026-04-25 17:20 | 54.89856 | 24.15125 | 4950 ft | 236 kts | 85° |
| 2026-04-25 17:20 | 54.89900 | 24.17908 | 4952 ft | 231 kts | 85° |
| 2026-04-25 17:21 | 54.89936 | 24.20712 | 4949 ft | 231 kts | 85° |
| 2026-04-25 17:21 | 54.89967 | 24.23459 | 4910 ft | 225 kts | 85° |
| 2026-04-25 17:21 | 54.89998 | 24.26155 | 4719 ft | 224 kts | 85° |
| 2026-04-25 17:21 | 54.90041 | 24.29817 | 4430 ft | 228 kts | 85° |
| 2026-04-25 17:22 | 54.90066 | 24.31605 | 4247 ft | 223 kts | 85° |
| 2026-04-25 17:22 | 54.90110 | 24.33386 | 4006 ft | 218 kts | 79° |
| 2026-04-25 17:22 | 54.91051 | 24.36028 | 3536 ft | 188 kts | 17° |
| 2026-04-25 17:22 | 54.92236 | 24.36105 | 3357 ft | 165 kts | 329° |
| 2026-04-25 17:23 | 54.93152 | 24.34991 | 3213 ft | 161 kts | 314° |
| 2026-04-25 17:23 | 54.93966 | 24.33691 | 3024 ft | 156 kts | 311° |
| 2026-04-25 17:23 | 54.94704 | 24.32371 | 2839 ft | 144 kts | 308° |
| 2026-04-25 17:23 | 54.95361 | 24.31137 | 2661 ft | 137 kts | 308° |
| 2026-04-25 17:24 | 54.96034 | 24.29856 | 2509 ft | 152 kts | 308° |
| 2026-04-25 17:24 | 54.96734 | 24.28479 | 2290 ft | 146 kts | 301° |
| 2026-04-25 17:24 | 54.97115 | 24.26925 | 2089 ft | 136 kts | 290° |
| 2026-04-25 17:24 | 54.97457 | 24.25448 | 1910 ft | 130 kts | 272° |
| 2026-04-25 17:25 | 54.97234 | 24.23936 | 1810 ft | 130 kts | 257° |
| 2026-04-25 17:25 | 54.97074 | 24.22330 | 1670 ft | 136 kts | 266° |
| 2026-04-25 17:25 | 54.97003 | 24.20733 | 1460 ft | 133 kts | 267° |
| 2026-04-25 17:25 | 54.96890 | 24.18579 | 1202 ft | 129 kts | 266° |
| 2026-04-25 17:26 | 54.96836 | 24.17585 | 1072 ft | 118 kts | 266° |
| 2026-04-25 17:26 | 54.96773 | 24.16211 | 943 ft | 119 kts | 268° |
| 2026-04-25 17:26 | 54.96707 | 24.14725 | 776 ft | 122 kts | 265° |
| 2026-04-25 17:26 | 54.96629 | 24.13364 | 579 ft | 107 kts | 266° |
| 2026-04-25 17:27 | 54.96569 | 24.12094 | 460 ft | 103 kts | 266° |
| 2026-04-25 17:27 | 54.96507 | 24.10845 | 313 ft | 102 kts | 266° |
| 2026-04-25 17:27 | 54.96456 | 24.09672 | 252 ft | 99 kts | 265° |
| 2026-04-25 17:27 | 54.96430 | 24.08825 | 670 ft | 110 kts | 272° |
| 2026-04-25 17:28 | 54.96398 | 24.06824 | 1560 ft | 149 kts | 272° |
| 2026-04-25 17:28 | 54.96429 | 24.04915 | 2317 ft | 174 kts | 272° |
| 2026-04-25 17:28 | 54.96306 | 24.02826 | 3344 ft | 183 kts | 262° |
| 2026-04-25 17:28 | 54.95987 | 24.00710 | 4296 ft | 186 kts | 262° |
| 2026-04-25 17:29 | 54.95670 | 23.98574 | 4695 ft | 182 kts | 258° |
| 2026-04-25 17:29 | 54.94960 | 23.96681 | 4842 ft | 200 kts | 227° |
| 2026-04-25 17:29 | 54.93612 | 23.95721 | 4922 ft | 222 kts | 194° |
| 2026-04-25 17:29 | 54.92028 | 23.96158 | 4954 ft | 243 kts | 162° |
| 2026-04-25 17:30 | 54.90681 | 23.97966 | 4964 ft | 253 kts | 131° |
| 2026-04-25 17:30 | 54.89957 | 24.00744 | 4969 ft | 254 kts | 99° |
| 2026-04-25 17:30 | 54.89903 | 24.03736 | 4972 ft | 241 kts | 85° |
| 2026-04-25 17:30 | 54.89941 | 24.06594 | 4959 ft | 238 kts | 85° |
| 2026-04-25 17:31 | 54.89968 | 24.09462 | 4961 ft | 236 kts | 85° |
| 2026-04-25 17:31 | 54.90002 | 24.12288 | 4961 ft | 234 kts | 85° |
| 2026-04-25 17:31 | 54.90036 | 24.15082 | 4962 ft | 229 kts | 85° |
| 2026-04-25 17:31 | 54.90076 | 24.18827 | 4965 ft | 235 kts | 85° |
| 2026-04-25 17:32 | 54.90098 | 24.20708 | 4967 ft | 237 kts | 85° |
| 2026-04-25 17:32 | 54.90132 | 24.23566 | 4962 ft | 233 kts | 85° |
| 2026-04-25 17:32 | 54.90160 | 24.26322 | 4890 ft | 224 kts | 85° |
| 2026-04-25 17:32 | 54.90189 | 24.29056 | 4668 ft | 230 kts | 85° |
| 2026-04-25 17:33 | 54.90227 | 24.31880 | 4462 ft | 233 kts | 85° |
| 2026-04-25 17:33 | 54.90268 | 24.34657 | 4175 ft | 230 kts | 85° |
| 2026-04-25 17:33 | 54.90423 | 24.37346 | 3807 ft | 220 kts | 65° |
| 2026-04-25 17:33 | 54.91347 | 24.39254 | 3535 ft | 203 kts | 18° |
| 2026-04-25 17:34 | 54.92631 | 24.39432 | 3430 ft | 181 kts | 333° |
| 2026-04-25 17:34 | 54.93590 | 24.38058 | 3362 ft | 183 kts | 306° |
| 2026-04-25 17:34 | 54.94301 | 24.36230 | 3175 ft | 177 kts | 299° |
| 2026-04-25 17:34 | 54.94912 | 24.34464 | 2979 ft | 165 kts | 298° |
| 2026-04-25 17:35 | 54.95480 | 24.32797 | 2777 ft | 154 kts | 298° |
| 2026-04-25 17:35 | 54.95999 | 24.31264 | 2586 ft | 143 kts | 297° |
| 2026-04-25 17:35 | 54.96484 | 24.29812 | 2410 ft | 134 kts | 295° |
| 2026-04-25 17:35 | 54.96654 | 24.28297 | 2200 ft | 125 kts | 275° |
| 2026-04-25 17:36 | 54.96812 | 24.26868 | 1982 ft | 117 kts | 277° |
| 2026-04-25 17:36 | 54.96862 | 24.25390 | 1872 ft | 127 kts | 275° |
| 2026-04-25 17:36 | 54.97031 | 24.23892 | 1734 ft | 122 kts | 275° |
| 2026-04-25 17:36 | 54.96943 | 24.22484 | 1536 ft | 116 kts | 266° |
| 2026-04-25 17:37 | 54.96941 | 24.21139 | 1335 ft | 108 kts | 271° |
| 2026-04-25 17:37 | 54.96927 | 24.19809 | 1182 ft | 114 kts | 268° |
| 2026-04-25 17:37 | 54.96874 | 24.18388 | 1117 ft | 114 kts | 266° |
| 2026-04-25 17:37 | 54.96811 | 24.17010 | 1013 ft | 114 kts | 266° |
| 2026-04-25 17:38 | 54.96746 | 24.15646 | 869 ft | 113 kts | 266° |
| 2026-04-25 17:38 | 54.96703 | 24.14727 | 779 ft | 117 kts | 266° |
| 2026-04-25 17:38 | 54.96597 | 24.12871 | 561 ft | 111 kts | 266° |
| 2026-04-25 17:38 | 54.96540 | 24.11552 | 393 ft | 106 kts | 267° |
| 2026-04-25 17:39 | 54.96479 | 24.10290 | 270 ft | 102 kts | 266° |
| 2026-04-25 17:39 | 54.96427 | 24.09071 | 358 ft | 112 kts | 266° |
| 2026-04-25 17:39 | 54.96347 | 24.07564 | 853 ft | 146 kts | 265° |
| 2026-04-25 17:39 | 54.96248 | 24.05714 | 1581 ft | 168 kts | 266° |
| 2026-04-25 17:40 | 54.96130 | 24.03479 | 2052 ft | 200 kts | 266° |
| 2026-04-25 17:40 | 54.95983 | 24.01179 | 3196 ft | 194 kts | 266° |
| 2026-04-25 17:40 | 54.95794 | 23.98899 | 4326 ft | 189 kts | 265° |
| 2026-04-25 17:40 | 54.95592 | 23.96677 | 5046 ft | 196 kts | 265° |
| 2026-04-25 17:41 | 54.95254 | 23.94361 | 4935 ft | 198 kts | 250° |
| 2026-04-25 17:41 | 54.94266 | 23.92671 | 4943 ft | 208 kts | 215° |
| 2026-04-25 17:41 | 54.92794 | 23.92206 | 4950 ft | 225 kts | 182° |
| 2026-04-25 17:41 | 54.91309 | 23.93183 | 4953 ft | 239 kts | 149° |
| 2026-04-25 17:42 | 54.90229 | 23.95431 | 4954 ft | 245 kts | 115° |
| 2026-04-25 17:42 | 54.89893 | 23.98307 | 4960 ft | 243 kts | 87° |
| 2026-04-25 17:42 | 54.89926 | 24.01231 | 4959 ft | 245 kts | 85° |
| 2026-04-25 17:42 | 54.89956 | 24.04242 | 4962 ft | 247 kts | 85° |
| 2026-04-25 17:43 | 54.89994 | 24.07196 | 4954 ft | 245 kts | 85° |
| 2026-04-25 17:43 | 54.90029 | 24.10163 | 4951 ft | 243 kts | 85° |
| 2026-04-25 17:43 | 54.90066 | 24.13091 | 4956 ft | 243 kts | 85° |
| 2026-04-25 17:43 | 54.90105 | 24.16009 | 4951 ft | 239 kts | 85° |
| 2026-04-25 17:44 | 54.90138 | 24.18860 | 4951 ft | 233 kts | 85° |
| 2026-04-25 17:44 | 54.90164 | 24.21620 | 4951 ft | 230 kts | 85° |
| 2026-04-25 17:44 | 54.90189 | 24.24431 | 4960 ft | 232 kts | 85° |
| 2026-04-25 17:44 | 54.90214 | 24.27267 | 4959 ft | 236 kts | 85° |
| 2026-04-25 17:45 | 54.90242 | 24.30097 | 4969 ft | 236 kts | 85° |
| 2026-04-25 17:45 | 54.90262 | 24.32009 | 4971 ft | 237 kts | 85° |
| 2026-04-25 17:45 | 54.90302 | 24.35820 | 4951 ft | 234 kts | 85° |
| 2026-04-25 17:45 | 54.90335 | 24.38610 | 4954 ft | 229 kts | 85° |
| 2026-04-25 17:46 | 54.90369 | 24.41374 | 4960 ft | 225 kts | 85° |
| 2026-04-25 17:46 | 54.90399 | 24.44103 | 4968 ft | 229 kts | 85° |
| 2026-04-25 17:46 | 54.90430 | 24.46905 | 4956 ft | 233 kts | 85° |
| 2026-04-25 17:46 | 54.90462 | 24.49690 | 4920 ft | 233 kts | 85° |
| 2026-04-25 17:47 | 54.90507 | 24.52504 | 4715 ft | 234 kts | 82° |
| 2026-04-25 17:47 | 54.91081 | 24.54999 | 4597 ft | 210 kts | 37° |
| 2026-04-25 17:47 | 54.92258 | 24.55928 | 4567 ft | 174 kts | 348° |
| 2026-04-25 17:47 | 54.93289 | 24.55071 | 4616 ft | 164 kts | 310° |
| 2026-04-25 17:48 | 54.94178 | 24.51333 | 4665 ft | 171 kts | 285° |
| 2026-04-25 17:48 | 54.94470 | 24.49351 | 4601 ft | 169 kts | 284° |
| 2026-04-25 17:48 | 54.94749 | 24.47359 | 4380 ft | 174 kts | 284° |
| 2026-04-25 17:49 | 54.95026 | 24.45329 | 4142 ft | 169 kts | 283° |
| 2026-04-25 17:49 | 54.95282 | 24.43377 | 3919 ft | 158 kts | 283° |
| 2026-04-25 17:49 | 54.95514 | 24.41586 | 3714 ft | 148 kts | 283° |
| 2026-04-25 17:49 | 54.95730 | 24.39896 | 3516 ft | 135 kts | 283° |
| 2026-04-25 17:50 | 54.95921 | 24.38391 | 3340 ft | 122 kts | 284° |
| 2026-04-25 17:50 | 54.96114 | 24.36945 | 3200 ft | 128 kts | 284° |
| 2026-04-25 17:50 | 54.96314 | 24.35415 | 3032 ft | 131 kts | 283° |
| 2026-04-25 17:50 | 54.96515 | 24.33844 | 2855 ft | 137 kts | 283° |
| 2026-04-25 17:51 | 54.96733 | 24.32144 | 2666 ft | 147 kts | 283° |
| 2026-04-25 17:51 | 54.96941 | 24.30448 | 2460 ft | 137 kts | 282° |
| 2026-04-25 17:51 | 54.97122 | 24.28908 | 2284 ft | 121 kts | 278° |
| 2026-04-25 17:51 | 54.97102 | 24.27540 | 2067 ft | 106 kts | 276° |
| 2026-04-25 17:52 | 54.97228 | 24.26229 | 1963 ft | 112 kts | 275° |
| 2026-04-25 17:52 | 54.97227 | 24.25295 | 1891 ft | 121 kts | 268° |
| 2026-04-25 17:52 | 54.97115 | 24.23233 | 1769 ft | 132 kts | 266° |
| 2026-04-25 17:52 | 54.97038 | 24.21663 | 1558 ft | 129 kts | 266° |
| 2026-04-25 17:53 | 54.96964 | 24.20081 | 1391 ft | 134 kts | 267° |
| 2026-04-25 17:53 | 54.96887 | 24.18493 | 1190 ft | 127 kts | 266° |
| 2026-04-25 17:53 | 54.96809 | 24.17007 | 1034 ft | 124 kts | 267° |
| 2026-04-25 17:53 | 54.96739 | 24.15561 | 858 ft | 115 kts | 266° |
| 2026-04-25 17:54 | 54.96672 | 24.14247 | 708 ft | 105 kts | 267° |
| 2026-04-25 17:54 | 54.96614 | 24.13021 | 568 ft | 98 kts | 266° |
| 2026-04-25 17:54 | 54.96559 | 24.11831 | 443 ft | 98 kts | 266° |
| 2026-04-25 17:54 | 54.96500 | 24.10660 | 300 ft | 96 kts | 267° |
| 2026-04-25 17:55 | 54.96446 | 24.09570 | 247 ft | 74 kts | 264° |
| 2026-04-25 17:55 | 54.96411 | 24.08866 | 240 ft | 54 kts | 265° |
| 2026-04-25 17:55 | 54.96378 | 24.08202 | 238 ft | 53 kts | 264° |
| 2026-04-25 17:55 | 54.96350 | 24.07623 | 235 ft | 45 kts | 264° |
| 2026-04-25 17:56 | 54.96393 | 24.07340 | 232 ft | 27 kts | 358° |
| 2026-04-25 17:56 | 54.96510 | 24.07326 | 232 ft | 14 kts | 354° |
| 2026-04-25 17:56 | 54.96606 | 24.07313 | 230 ft | 11 kts | 354° |
| 2026-04-25 17:56 | 54.96641 | 24.07362 | 230 ft | 7 kts | 111° |
| 2026-04-25 17:57 | 54.96634 | 24.07396 | 230 ft | 0 kts | 104° |